WXM80 ListenWXM80 Stop

You find our weather info also at:

UK Metoffice

WeatherCloud

Weather Underground

Northeastern Weather Network

AWEKAS

Citizen Weather Observer Program (CWOP)

HAMweather, WeatherForYou, PWS Weather


Weather Underground History page Text

Daily Summary for October 1, 2016 Units:  English    Metric   Both
« Previous Day
Next Day »
Daily Weekly Monthly Yearly Custom
  High: Low: Average:
Temperature: 61.3 °F 57.8 °F 59.4 °F
Dew Point: 58.7 °F 56.1 °F 57.3 °F
Humidity: 96 % 90 % 93 %
Wind Speed: 12.4 mph 2.8 mph 7.3 mph
Wind Gust: 21.0 mph - -
Wind:- - ENE
Pressure: 30.22 in 30.11 in -
Precipitation: 0.02 in    
Historical Graphs
 
 
Tabular Data for October 1, 2016
Time Temperature Dew Point Pressure Wind Wind Speed Wind Gust Humidity Rainfall Rate (Hourly)
00:00 58.8 °F 57.4 °F 30.22 in East 9.1 mph 13.8 mph 95 % 0.00 in
00:05 58.8 °F 57.4 °F 30.21 in ENE 9.3 mph 16.1 mph 95 % 0.00 in
00:10 58.7 °F 57.3 °F 30.22 in ENE 6.7 mph 12.7 mph 95 % 0.01 in
00:16 58.6 °F 57.2 °F 30.21 in ENE 8.0 mph 18.0 mph 95 % 0.00 in
00:21 58.5 °F 57.1 °F 30.21 in ENE 10.4 mph 12.7 mph 95 % 0.01 in
00:26 58.4 °F 57.0 °F 30.21 in ENE 8.0 mph 16.0 mph 95 % 0.00 in
00:36 58.2 °F 56.8 °F 30.21 in ENE 8.9 mph 19.6 mph 95 % 0.01 in
00:41 58.1 °F 56.7 °F 30.21 in ENE 8.0 mph 17.0 mph 95 % 0.00 in
00:46 58.1 °F 57.0 °F 30.20 in ENE 10.0 mph 21.0 mph 96 % 0.00 in
00:51 58.1 °F 57.0 °F 30.21 in ENE 9.8 mph 13.8 mph 96 % 0.01 in
00:56 58.2 °F 57.1 °F 30.20 in ENE 10.0 mph 16.0 mph 96 % 0.00 in
01:01 58.1 °F 57.0 °F 30.20 in ENE 9.8 mph 12.7 mph 96 % 0.01 in
01:06 58.1 °F 57.0 °F 30.20 in ENE 10.1 mph 16.1 mph 96 % 0.01 in
01:11 58.0 °F 56.9 °F 30.20 in ENE 9.0 mph 19.6 mph 96 % 0.00 in
01:16 58.0 °F 56.9 °F 30.20 in NE 11.6 mph 16.0 mph 96 % 0.00 in
01:21 57.9 °F 56.5 °F 30.20 in East 12.4 mph 18.4 mph 95 % 0.00 in
01:26 57.9 °F 56.8 °F 30.20 in ENE 10.0 mph 15.0 mph 96 % 0.00 in
01:31 57.9 °F 56.8 °F 30.21 in ENE 7.8 mph 11.5 mph 96 % 0.00 in
01:36 58.0 °F 56.9 °F 30.21 in East 9.6 mph 17.0 mph 96 % 0.00 in
01:41 58.1 °F 57.0 °F 30.20 in ENE 8.4 mph 12.7 mph 96 % 0.00 in
01:46 58.1 °F 57.0 °F 30.20 in NE 10.5 mph 16.1 mph 96 % 0.00 in
01:52 58.0 °F 56.6 °F 30.20 in NE 10.7 mph 16.1 mph 95 % 0.00 in
01:57 58.0 °F 56.6 °F 30.20 in ENE 10.2 mph 16.1 mph 95 % 0.00 in
02:02 58.0 °F 56.6 °F 30.20 in ENE 10.0 mph 12.7 mph 95 % 0.00 in
02:07 58.1 °F 56.7 °F 30.20 in ENE 8.7 mph 13.8 mph 95 % 0.00 in
02:12 58.1 °F 56.7 °F 30.20 in ENE 9.2 mph 15.0 mph 95 % 0.00 in
02:17 58.2 °F 56.8 °F 30.20 in ENE 8.3 mph 11.5 mph 95 % 0.00 in
02:22 58.3 °F 56.9 °F 30.20 in ENE 10.1 mph 12.7 mph 95 % 0.00 in
02:27 58.4 °F 57.0 °F 30.20 in ENE 10.1 mph 16.1 mph 95 % 0.00 in
02:32 58.5 °F 57.1 °F 30.19 in ESE 9.0 mph 15.0 mph 95 % 0.00 in
02:37 58.5 °F 57.1 °F 30.19 in NE 7.9 mph 17.3 mph 95 % 0.00 in
02:43 58.5 °F 57.1 °F 30.19 in NE 8.2 mph 15.0 mph 95 % 0.00 in
02:48 58.5 °F 56.8 °F 30.20 in ENE 8.8 mph 13.8 mph 94 % 0.00 in
02:53 58.5 °F 56.8 °F 30.19 in ENE 10.3 mph 18.4 mph 94 % 0.00 in
02:58 58.5 °F 56.8 °F 30.19 in NE 8.3 mph 17.3 mph 94 % 0.00 in
03:03 58.4 °F 56.7 °F 30.19 in ENE 7.1 mph 11.5 mph 94 % 0.00 in
03:08 58.4 °F 56.7 °F 30.19 in ENE 7.5 mph 13.0 mph 94 % 0.00 in
03:13 58.4 °F 56.7 °F 30.20 in East 10.2 mph 14.0 mph 94 % 0.00 in
03:18 58.3 °F 56.6 °F 30.19 in East 9.7 mph 17.3 mph 94 % 0.00 in
03:23 58.2 °F 56.5 °F 30.19 in East 10.2 mph 15.0 mph 94 % 0.00 in
03:28 58.2 °F 56.5 °F 30.19 in ENE 9.5 mph 14.0 mph 94 % 0.00 in
03:34 58.2 °F 56.5 °F 30.19 in ENE 9.3 mph 11.5 mph 94 % 0.00 in
03:39 58.2 °F 56.5 °F 30.19 in ENE 6.9 mph 13.8 mph 94 % 0.00 in
03:44 58.2 °F 56.5 °F 30.19 in East 7.1 mph 11.0 mph 94 % 0.00 in
03:49 58.1 °F 56.4 °F 30.19 in ENE 8.5 mph 12.0 mph 94 % 0.00 in
03:54 58.1 °F 56.4 °F 30.19 in NNE 9.2 mph 15.0 mph 94 % 0.00 in
03:59 58.1 °F 56.4 °F 30.19 in East 6.7 mph 12.7 mph 94 % 0.00 in
04:04 58.2 °F 56.5 °F 30.19 in ENE 5.9 mph 10.4 mph 94 % 0.00 in
04:09 58.2 °F 56.5 °F 30.19 in ENE 5.6 mph 10.4 mph 94 % 0.00 in
04:14 58.2 °F 56.5 °F 30.18 in East 7.9 mph 13.8 mph 94 % 0.00 in
04:20 58.2 °F 56.5 °F 30.18 in NE 8.7 mph 13.8 mph 94 % 0.00 in
04:25 58.2 °F 56.2 °F 30.18 in East 9.9 mph 19.6 mph 93 % 0.00 in
04:30 58.2 °F 56.5 °F 30.18 in NNE 6.7 mph 11.5 mph 94 % 0.00 in
04:35 58.2 °F 56.5 °F 30.18 in ENE 8.4 mph 12.7 mph 94 % 0.00 in
04:40 58.2 °F 56.5 °F 30.18 in NE 5.7 mph 11.5 mph 94 % 0.00 in
04:45 58.2 °F 56.5 °F 30.18 in NE 8.4 mph 12.7 mph 94 % 0.00 in
04:50 58.1 °F 56.4 °F 30.18 in NNE 6.7 mph 11.0 mph 94 % 0.00 in
04:55 58.1 °F 56.4 °F 30.18 in ENE 5.9 mph 12.7 mph 94 % 0.00 in
05:00 58.2 °F 56.5 °F 30.19 in ENE 9.4 mph 11.5 mph 94 % 0.00 in
05:10 58.2 °F 56.5 °F 30.19 in NE 8.0 mph 17.0 mph 94 % 0.00 in
05:16 58.2 °F 56.5 °F 30.18 in ENE 7.0 mph 15.0 mph 94 % 0.00 in
05:21 58.2 °F 56.5 °F 30.18 in ENE 8.0 mph 15.0 mph 94 % 0.00 in
05:26 58.3 °F 56.6 °F 30.19 in ENE 9.0 mph 15.0 mph 94 % 0.00 in
05:31 58.3 °F 56.6 °F 30.19 in ENE 8.0 mph 20.0 mph 94 % 0.00 in
05:36 58.3 °F 56.6 °F 30.19 in ENE 9.0 mph 15.0 mph 94 % 0.00 in
05:41 58.3 °F 56.6 °F 30.19 in ENE 7.8 mph 11.5 mph 94 % 0.00 in
05:46 58.2 °F 56.5 °F 30.19 in East 7.8 mph 11.5 mph 94 % 0.00 in
05:51 58.2 °F 56.5 °F 30.19 in ENE 7.6 mph 14.0 mph 94 % 0.00 in
05:56 58.2 °F 56.2 °F 30.19 in ENE 8.5 mph 13.8 mph 93 % 0.00 in
06:01 58.2 °F 56.2 °F 30.19 in ENE 9.4 mph 16.1 mph 93 % 0.00 in
06:06 58.2 °F 56.2 °F 30.18 in ENE 8.1 mph 11.5 mph 93 % 0.00 in
06:11 58.2 °F 56.2 °F 30.18 in East 10.4 mph 17.0 mph 93 % 0.00 in
06:16 58.2 °F 56.2 °F 30.18 in ENE 10.7 mph 19.0 mph 93 % 0.00 in
06:21 58.2 °F 56.2 °F 30.18 in ENE 7.5 mph 15.0 mph 93 % 0.00 in
06:27 58.2 °F 56.2 °F 30.18 in ENE 9.6 mph 12.7 mph 93 % 0.00 in
06:32 58.2 °F 56.2 °F 30.18 in ENE 8.2 mph 12.7 mph 93 % 0.00 in
06:37 58.2 °F 56.2 °F 30.18 in ENE 7.8 mph 12.7 mph 93 % 0.00 in
06:42 58.2 °F 56.2 °F 30.18 in NNE 9.8 mph 13.8 mph 93 % 0.00 in
06:52 58.2 °F 56.2 °F 30.18 in East 9.4 mph 15.0 mph 93 % 0.00 in
06:57 58.2 °F 56.2 °F 30.18 in ENE 10.5 mph 13.8 mph 93 % 0.00 in
07:02 58.1 °F 56.1 °F 30.18 in ENE 7.4 mph 15.0 mph 93 % 0.00 in
07:07 58.2 °F 56.5 °F 30.18 in East 8.2 mph 16.1 mph 94 % 0.00 in
07:12 58.2 °F 56.5 °F 30.19 in ENE 8.6 mph 17.3 mph 94 % 0.00 in
07:18 58.1 °F 56.1 °F 30.19 in NE 7.6 mph 13.8 mph 93 % 0.00 in
07:23 58.1 °F 56.4 °F 30.19 in ENE 8.8 mph 12.7 mph 94 % 0.00 in
07:28 58.1 °F 56.4 °F 30.19 in NE 6.4 mph 10.4 mph 94 % 0.00 in
07:33 58.1 °F 56.4 °F 30.20 in ENE 8.3 mph 12.7 mph 94 % 0.00 in
07:38 58.1 °F 56.4 °F 30.20 in NE 6.9 mph 14.0 mph 94 % 0.00 in
07:43 58.0 °F 56.3 °F 30.20 in ENE 7.9 mph 10.4 mph 94 % 0.00 in
07:48 58.0 °F 56.3 °F 30.20 in ENE 9.0 mph 11.5 mph 94 % 0.00 in
07:53 57.9 °F 56.2 °F 30.20 in ENE 8.4 mph 11.5 mph 94 % 0.00 in
08:03 57.8 °F 56.4 °F 30.20 in ENE 7.9 mph 15.0 mph 95 % 0.00 in
08:09 57.8 °F 56.4 °F 30.20 in ENE 5.6 mph 11.5 mph 95 % 0.00 in
08:14 57.8 °F 56.4 °F 30.21 in ENE 8.5 mph 11.5 mph 95 % 0.00 in
08:29 57.8 °F 56.4 °F 30.20 in ENE 6.4 mph 10.4 mph 95 % 0.00 in
08:39 57.8 °F 56.7 °F 30.20 in NE 6.1 mph 12.0 mph 96 % 0.00 in
08:44 57.9 °F 56.8 °F 30.20 in NNE 5.8 mph 14.0 mph 96 % 0.00 in
08:49 57.9 °F 56.8 °F 30.20 in ENE 7.4 mph 10.4 mph 96 % 0.00 in
08:54 58.0 °F 56.9 °F 30.20 in ENE 7.7 mph 11.5 mph 96 % 0.01 in
09:00 58.0 °F 56.9 °F 30.20 in NE 6.3 mph 8.1 mph 96 % 0.01 in
09:05 58.0 °F 56.9 °F 30.20 in NE 8.8 mph 11.5 mph 96 % 0.01 in
09:10 58.0 °F 56.9 °F 30.20 in NE 7.7 mph 11.5 mph 96 % 0.01 in
09:15 57.9 °F 56.8 °F 30.20 in ENE 7.8 mph 13.8 mph 96 % 0.01 in
09:20 57.9 °F 56.8 °F 30.20 in ENE 8.5 mph 11.5 mph 96 % 0.01 in
09:25 57.9 °F 56.8 °F 30.20 in East 9.0 mph 15.0 mph 96 % 0.01 in
09:30 57.9 °F 56.8 °F 30.20 in East 8.8 mph 16.1 mph 96 % 0.01 in
09:35 57.9 °F 56.8 °F 30.20 in East 6.9 mph 11.5 mph 96 % 0.01 in
09:40 58.0 °F 56.9 °F 30.20 in ENE 9.9 mph 15.0 mph 96 % 0.01 in
09:45 58.1 °F 57.0 °F 30.20 in ENE 8.7 mph 11.5 mph 96 % 0.01 in
09:50 58.1 °F 57.0 °F 30.19 in ENE 8.1 mph 13.0 mph 96 % 0.00 in
09:55 58.2 °F 56.8 °F 30.20 in ENE 6.0 mph 16.0 mph 95 % 0.00 in
10:01 58.3 °F 56.9 °F 30.19 in ENE 5.5 mph 12.7 mph 95 % 0.00 in
10:06 58.4 °F 57.0 °F 30.19 in NNE 6.6 mph 13.8 mph 95 % 0.00 in
10:11 58.5 °F 57.1 °F 30.18 in ENE 9.3 mph 12.7 mph 95 % 0.00 in
10:16 58.6 °F 57.2 °F 30.18 in NE 5.0 mph 11.5 mph 95 % 0.00 in
10:21 58.7 °F 57.3 °F 30.18 in East 8.0 mph 13.0 mph 95 % 0.00 in
10:26 58.9 °F 57.5 °F 30.18 in ENE 7.2 mph 10.4 mph 95 % 0.00 in
10:31 59.0 °F 57.6 °F 30.18 in East 7.7 mph 12.7 mph 95 % 0.00 in
10:36 59.2 °F 57.8 °F 30.18 in NE 7.8 mph 13.8 mph 95 % 0.00 in
10:41 59.3 °F 57.6 °F 30.18 in ENE 8.7 mph 15.0 mph 94 % 0.00 in
10:46 59.5 °F 57.8 °F 30.18 in ENE 7.8 mph 11.5 mph 94 % 0.00 in
10:52 59.6 °F 57.9 °F 30.18 in ENE 7.1 mph 12.7 mph 94 % 0.00 in
10:57 59.8 °F 58.1 °F 30.18 in ENE 7.4 mph 8.1 mph 94 % 0.00 in
11:02 59.8 °F 57.8 °F 30.18 in ENE 7.4 mph 11.5 mph 93 % 0.00 in
11:07 59.9 °F 57.9 °F 30.18 in ENE 8.6 mph 12.7 mph 93 % 0.00 in
11:12 59.9 °F 57.6 °F 30.19 in ENE 8.4 mph 11.0 mph 92 % 0.00 in
11:18 60.0 °F 57.7 °F 30.19 in ENE 5.6 mph 10.4 mph 92 % 0.00 in
11:23 60.1 °F 57.8 °F 30.19 in ENE 7.1 mph 11.0 mph 92 % 0.00 in
11:33 60.1 °F 57.8 °F 30.19 in ENE 6.4 mph 11.5 mph 92 % 0.00 in
11:38 60.1 °F 57.8 °F 30.19 in East 6.2 mph 10.0 mph 92 % 0.00 in
11:43 60.2 °F 57.9 °F 30.18 in NE 8.0 mph 11.5 mph 92 % 0.00 in
11:48 60.2 °F 57.9 °F 30.19 in ENE 6.2 mph 9.2 mph 92 % 0.00 in
11:53 60.2 °F 57.9 °F 30.19 in ENE 8.9 mph 15.0 mph 92 % 0.00 in
11:58 60.3 °F 58.0 °F 30.19 in ENE 8.0 mph 11.0 mph 92 % 0.00 in
12:04 60.3 °F 58.0 °F 30.19 in NE 6.5 mph 11.5 mph 92 % 0.00 in
12:09 60.4 °F 57.8 °F 30.18 in East 7.7 mph 10.4 mph 91 % 0.00 in
12:14 60.4 °F 57.8 °F 30.18 in ENE 7.2 mph 13.8 mph 91 % 0.00 in
12:19 60.4 °F 57.8 °F 30.18 in NE 8.7 mph 16.1 mph 91 % 0.00 in
12:24 60.5 °F 57.9 °F 30.18 in NE 7.6 mph 12.7 mph 91 % 0.00 in
12:29 60.5 °F 57.9 °F 30.18 in ENE 6.3 mph 9.0 mph 91 % 0.00 in
12:34 60.7 °F 58.1 °F 30.17 in NE 7.5 mph 11.0 mph 91 % 0.00 in
12:39 60.7 °F 58.1 °F 30.18 in ENE 6.6 mph 10.4 mph 91 % 0.00 in
12:44 60.7 °F 58.1 °F 30.18 in ENE 4.9 mph 9.2 mph 91 % 0.00 in
12:49 60.7 °F 58.1 °F 30.17 in East 7.9 mph 11.5 mph 91 % 0.00 in
12:55 60.8 °F 58.2 °F 30.17 in NNE 8.1 mph 12.7 mph 91 % 0.00 in
13:00 60.8 °F 58.2 °F 30.17 in ENE 5.5 mph 11.5 mph 91 % 0.00 in
13:05 60.9 °F 58.3 °F 30.16 in ENE 5.9 mph 18.4 mph 91 % 0.00 in
13:10 61.0 °F 58.4 °F 30.16 in ENE 7.1 mph 10.4 mph 91 % 0.00 in
13:15 61.1 °F 58.5 °F 30.15 in ENE 4.8 mph 9.2 mph 91 % 0.00 in
13:20 61.1 °F 58.1 °F 30.16 in ENE 3.2 mph 8.0 mph 90 % 0.00 in
13:25 61.1 °F 58.1 °F 30.16 in East 7.0 mph 9.2 mph 90 % 0.00 in
13:30 61.1 °F 58.1 °F 30.16 in ENE 7.2 mph 11.5 mph 90 % 0.00 in
13:35 61.1 °F 58.1 °F 30.16 in NE 6.1 mph 10.0 mph 90 % 0.00 in
13:40 61.1 °F 58.1 °F 30.16 in NE 4.4 mph 9.2 mph 90 % 0.00 in
13:46 61.1 °F 58.1 °F 30.16 in ENE 3.9 mph 7.0 mph 90 % 0.00 in
13:51 61.1 °F 58.1 °F 30.16 in ENE 7.0 mph 14.0 mph 90 % 0.00 in
13:56 61.1 °F 58.1 °F 30.16 in ENE 6.0 mph 12.0 mph 90 % 0.00 in
14:01 61.1 °F 58.5 °F 30.16 in ENE 6.1 mph 8.1 mph 91 % 0.00 in
14:06 61.1 °F 58.5 °F 30.15 in NE 6.5 mph 11.5 mph 91 % 0.00 in
14:11 61.1 °F 58.5 °F 30.15 in NNE 3.8 mph 10.4 mph 91 % 0.00 in
14:16 61.1 °F 58.5 °F 30.15 in East 7.7 mph 11.5 mph 91 % 0.00 in
14:21 61.2 °F 58.2 °F 30.15 in NE 5.9 mph 11.5 mph 90 % 0.00 in
14:26 61.2 °F 58.6 °F 30.15 in NE 6.4 mph 13.0 mph 91 % 0.00 in
14:31 61.2 °F 58.2 °F 30.15 in ENE 4.3 mph 9.0 mph 90 % 0.00 in
14:36 61.2 °F 58.2 °F 30.15 in North 4.7 mph 8.1 mph 90 % 0.00 in
14:41 61.1 °F 58.1 °F 30.15 in ENE 5.0 mph 9.2 mph 90 % 0.00 in
14:46 61.2 °F 58.6 °F 30.15 in NE 7.0 mph 10.4 mph 91 % 0.00 in
14:52 61.2 °F 58.6 °F 30.15 in ENE 8.6 mph 11.0 mph 91 % 0.00 in
14:57 61.3 °F 58.3 °F 30.16 in ENE 3.6 mph 5.8 mph 90 % 0.00 in
15:02 61.3 °F 58.7 °F 30.15 in NNE 5.0 mph 11.5 mph 91 % 0.00 in
15:07 61.3 °F 58.3 °F 30.15 in NE 5.3 mph 8.1 mph 90 % 0.00 in
15:12 61.3 °F 58.3 °F 30.15 in East 3.4 mph 6.0 mph 90 % 0.00 in
15:17 61.3 °F 58.3 °F 30.15 in East 6.2 mph 10.4 mph 90 % 0.00 in
15:22 61.3 °F 58.3 °F 30.15 in NNE 6.7 mph 9.2 mph 90 % 0.00 in
15:27 61.3 °F 58.3 °F 30.15 in ENE 6.5 mph 9.2 mph 90 % 0.00 in
15:32 61.3 °F 58.3 °F 30.15 in ENE 4.3 mph 6.9 mph 90 % 0.00 in
15:37 61.3 °F 58.3 °F 30.15 in ENE 4.0 mph 4.6 mph 90 % 0.00 in
15:43 61.2 °F 58.2 °F 30.15 in ENE 3.8 mph 6.9 mph 90 % 0.00 in
15:48 61.2 °F 58.2 °F 30.14 in ENE 6.2 mph 13.8 mph 90 % 0.00 in
15:53 61.1 °F 58.1 °F 30.14 in ENE 5.5 mph 11.5 mph 90 % 0.00 in
15:58 61.1 °F 58.1 °F 30.15 in NE 4.3 mph 9.2 mph 90 % 0.00 in
16:03 61.1 °F 58.1 °F 30.14 in NE 5.2 mph 12.7 mph 90 % 0.00 in
16:08 61.0 °F 58.0 °F 30.14 in ENE 3.2 mph 8.1 mph 90 % 0.00 in
16:13 61.1 °F 58.1 °F 30.13 in ENE 7.6 mph 14.0 mph 90 % 0.00 in
16:23 61.0 °F 58.4 °F 30.13 in ENE 6.6 mph 11.5 mph 91 % 0.00 in
16:28 60.9 °F 58.3 °F 30.13 in NE 4.7 mph 8.1 mph 91 % 0.00 in
16:34 60.9 °F 58.3 °F 30.13 in ENE 4.4 mph 11.0 mph 91 % 0.00 in
16:39 60.9 °F 58.3 °F 30.13 in ENE 5.9 mph 11.5 mph 91 % 0.00 in
16:44 60.8 °F 58.2 °F 30.13 in NNE 4.0 mph 9.2 mph 91 % 0.00 in
16:49 60.8 °F 58.2 °F 30.13 in NE 4.1 mph 6.9 mph 91 % 0.00 in
16:59 60.8 °F 58.2 °F 30.12 in NE 3.9 mph 8.1 mph 91 % 0.00 in
17:04 60.7 °F 58.1 °F 30.12 in ENE 7.0 mph 11.5 mph 91 % 0.00 in
17:14 60.6 °F 58.0 °F 30.12 in ENE 5.3 mph 8.1 mph 91 % 0.00 in
17:19 60.6 °F 58.0 °F 30.12 in ENE 6.0 mph 16.1 mph 91 % 0.00 in
17:25 60.6 °F 58.0 °F 30.12 in ENE 5.0 mph 10.4 mph 91 % 0.00 in
17:30 60.6 °F 58.0 °F 30.13 in ENE 4.4 mph 16.1 mph 91 % 0.00 in
17:35 60.6 °F 58.0 °F 30.12 in ENE 9.0 mph 13.8 mph 91 % 0.00 in
17:40 60.6 °F 58.0 °F 30.12 in ENE 7.9 mph 12.7 mph 91 % 0.00 in
17:45 60.6 °F 58.0 °F 30.12 in ENE 8.4 mph 12.7 mph 91 % 0.00 in
17:50 60.6 °F 58.0 °F 30.11 in ENE 9.6 mph 15.0 mph 91 % 0.00 in
17:55 60.6 °F 58.0 °F 30.12 in ENE 4.3 mph 7.0 mph 91 % 0.00 in
18:01 60.6 °F 58.0 °F 30.12 in ENE 8.2 mph 12.7 mph 91 % 0.00 in
18:06 60.6 °F 58.0 °F 30.13 in East 2.8 mph 14.0 mph 91 % 0.00 in
18:11 60.5 °F 57.9 °F 30.13 in East 6.3 mph 9.2 mph 91 % 0.00 in
18:16 60.5 °F 57.9 °F 30.12 in East 6.4 mph 11.5 mph 91 % 0.00 in
18:21 60.5 °F 57.9 °F 30.12 in NE 6.2 mph 11.5 mph 91 % 0.00 in
18:26 60.5 °F 57.9 °F 30.12 in ENE 8.5 mph 12.7 mph 91 % 0.00 in
18:31 60.5 °F 58.2 °F 30.11 in ENE 8.8 mph 11.5 mph 92 % 0.00 in
18:37 60.6 °F 58.3 °F 30.12 in NE 7.1 mph 10.4 mph 92 % 0.00 in
18:42 60.6 °F 58.0 °F 30.13 in ENE 5.3 mph 8.1 mph 91 % 0.00 in
18:47 60.6 °F 58.0 °F 30.13 in ENE 5.7 mph 11.5 mph 91 % 0.00 in
18:57 60.6 °F 58.0 °F 30.12 in ENE 9.3 mph 13.8 mph 91 % 0.00 in
19:02 60.6 °F 58.0 °F 30.12 in ENE 8.1 mph 11.5 mph 91 % 0.00 in
19:07 60.6 °F 58.0 °F 30.12 in ENE 6.2 mph 11.5 mph 91 % 0.00 in
19:12 60.6 °F 58.0 °F 30.13 in ENE 5.5 mph 11.5 mph 91 % 0.00 in
19:17 60.6 °F 58.0 °F 30.13 in ENE 7.8 mph 10.4 mph 91 % 0.00 in
19:22 60.5 °F 57.9 °F 30.12 in ENE 6.5 mph 11.5 mph 91 % 0.00 in
19:28 60.5 °F 57.9 °F 30.11 in ENE 9.9 mph 15.0 mph 91 % 0.00 in
19:33 60.4 °F 57.8 °F 30.12 in ENE 8.7 mph 12.0 mph 91 % 0.00 in
19:38 60.4 °F 57.8 °F 30.12 in NE 6.6 mph 10.4 mph 91 % 0.00 in
19:43 60.4 °F 57.8 °F 30.13 in ENE 7.4 mph 11.5 mph 91 % 0.00 in
19:48 60.4 °F 57.8 °F 30.13 in ENE 8.5 mph 15.0 mph 91 % 0.00 in
19:53 60.4 °F 57.8 °F 30.13 in ENE 7.9 mph 12.7 mph 91 % 0.00 in
19:58 60.3 °F 57.7 °F 30.12 in East 9.2 mph 11.5 mph 91 % 0.00 in
20:03 60.3 °F 57.7 °F 30.13 in East 7.6 mph 11.5 mph 91 % 0.00 in
20:08 60.2 °F 57.6 °F 30.13 in East 7.2 mph 10.4 mph 91 % 0.00 in
20:13 60.2 °F 57.6 °F 30.13 in ENE 7.9 mph 12.7 mph 91 % 0.00 in
20:19 60.2 °F 57.6 °F 30.13 in ENE 7.5 mph 9.0 mph 91 % 0.00 in
20:24 60.2 °F 57.6 °F 30.13 in East 8.8 mph 11.5 mph 91 % 0.00 in
20:29 60.2 °F 57.6 °F 30.13 in East 9.0 mph 15.0 mph 91 % 0.00 in
20:34 60.1 °F 57.5 °F 30.13 in ENE 7.5 mph 11.5 mph 91 % 0.00 in
20:39 60.1 °F 57.5 °F 30.13 in NE 9.2 mph 12.7 mph 91 % 0.00 in
20:44 60.0 °F 57.4 °F 30.13 in East 7.8 mph 13.0 mph 91 % 0.00 in
20:49 60.0 °F 57.4 °F 30.13 in East 7.8 mph 11.5 mph 91 % 0.00 in
20:54 60.0 °F 57.4 °F 30.13 in ENE 7.4 mph 11.5 mph 91 % 0.00 in
20:59 59.9 °F 57.3 °F 30.13 in NE 7.7 mph 13.8 mph 91 % 0.00 in
21:04 59.9 °F 57.3 °F 30.12 in East 7.5 mph 9.2 mph 91 % 0.00 in
21:10 59.9 °F 57.3 °F 30.12 in ENE 6.2 mph 13.8 mph 91 % 0.00 in
21:15 59.9 °F 57.6 °F 30.12 in East 7.0 mph 16.1 mph 92 % 0.00 in
21:25 59.9 °F 57.3 °F 30.13 in ENE 5.7 mph 12.7 mph 91 % 0.00 in
21:30 59.9 °F 57.3 °F 30.12 in ENE 10.6 mph 16.1 mph 91 % 0.00 in
21:35 59.8 °F 57.2 °F 30.12 in ENE 5.9 mph 11.5 mph 91 % 0.00 in
21:40 59.8 °F 57.2 °F 30.12 in ENE 6.5 mph 12.7 mph 91 % 0.00 in
21:45 59.8 °F 57.2 °F 30.12 in ENE 5.6 mph 11.5 mph 91 % 0.00 in
21:50 59.8 °F 57.2 °F 30.11 in ENE 6.5 mph 8.1 mph 91 % 0.00 in
21:55 59.8 °F 57.5 °F 30.12 in ENE 8.8 mph 11.5 mph 92 % 0.00 in
22:01 59.8 °F 57.2 °F 30.12 in East 8.1 mph 12.0 mph 91 % 0.00 in
22:05 59.8 °F 57.2 °F 30.12 in ENE 8.0 mph 13.0 mph 91 % 0.00 in
22:06 59.8 °F 57.2 °F 30.12 in NE 7.7 mph 11.5 mph 91 % 0.00 in
22:10 59.8 °F 57.2 °F 30.12 in ENE 6.0 mph 13.0 mph 91 % 0.00 in
22:15 59.8 °F 57.5 °F 30.11 in ENE 5.0 mph 12.0 mph 92 % 0.00 in
22:20 59.8 °F 57.2 °F 30.11 in ENE 3.0 mph 9.0 mph 91 % 0.00 in
22:25 59.8 °F 57.2 °F 30.11 in ENE 5.0 mph 9.0 mph 91 % 0.00 in
22:30 59.8 °F 57.5 °F 30.11 in ENE 3.0 mph 11.0 mph 92 % 0.00 in
22:35 59.8 °F 57.5 °F 30.11 in ENE 5.0 mph 7.0 mph 92 % 0.00 in
22:40 59.7 °F 57.4 °F 30.11 in ENE 6.0 mph 15.0 mph 92 % 0.00 in
22:45 59.7 °F 57.4 °F 30.11 in ENE 5.0 mph 14.0 mph 92 % 0.00 in
22:50 59.8 °F 57.5 °F 30.12 in ENE 6.0 mph 14.0 mph 92 % 0.00 in
22:55 59.7 °F 57.4 °F 30.11 in ENE 8.0 mph 11.0 mph 92 % 0.00 in
23:05 59.7 °F 57.4 °F 30.11 in ENE 5.0 mph 12.0 mph 92 % 0.00 in
23:10 59.6 °F 57.3 °F 30.12 in ENE 6.0 mph 14.0 mph 92 % 0.00 in
23:15 59.6 °F 57.3 °F 30.11 in ENE 8.0 mph 12.0 mph 92 % 0.00 in
23:20 59.6 °F 57.3 °F 30.11 in ENE 3.0 mph 15.0 mph 92 % 0.00 in
23:25 59.6 °F 57.3 °F 30.11 in ENE 8.0 mph 14.0 mph 92 % 0.00 in
23:30 59.5 °F 57.2 °F 30.11 in ENE 7.0 mph 13.0 mph 92 % 0.00 in
23:35 59.5 °F 57.2 °F 30.11 in ENE 5.0 mph 13.0 mph 92 % 0.00 in
23:40 59.5 °F 57.2 °F 30.12 in ENE 7.0 mph 13.0 mph 92 % 0.00 in
23:45 59.4 °F 57.1 °F 30.12 in ENE 6.0 mph 11.0 mph 92 % 0.00 in
23:50 59.4 °F 57.1 °F 30.12 in ENE 5.0 mph 13.0 mph 92 % 0.00 in
23:55 59.4 °F 57.1 °F 30.12 in ENE 7.0 mph 9.0 mph 92 % 0.00 in
Crab Meadow Weather
Compliments of Weather Underground - 2.75 mb

Script developed by  Jim McMurry - jmcmurry@mwt.net Adapted for the template by  Wim van der Kuil - Leuven-Template.eu

Recycling: The average household throws away 13,000 separate pieces of paper each year. Most is packaging and junk mail.